Terminal Aerodrome Forecast
Issued by NWS Houston/Galveston TX

Current Version | Previous Version | Text Only | Print | Product List | Glossary Off
Versions: 1 2 3 4 5 6 7 8 9 10 11 12 13 14 15 16 17 18 19 20 21 22 23 24 25 26 27 28 29 30 31 32 33 34 35 36 37 38 39 40 41 42 43 44 45 46 47 48 49 50

000
FTUS44 KHGX 020520
TAFHOU
TAF
KHOU 020520Z 0206/0306 01010KT P6SM FEW030
      TEMPO 0210/0214 BKN025
     FM021400 36010KT P6SM SCT030
     FM030100 02004KT P6SM FEW040=

USA.gov is the U.S. government's official web portal to all federal, state and local government web resources and services.